Terminal Aerodrome Forecast
Issued by NWS

Home | Current Version | Previous Version | Text Only | Print | Product List | Glossary On
Versions: 1 2 3 4 5 6 7 8 9 10 11 12
687
FTUS44 KLZK 132323
TAFBPK
TAF
KBPK 132323Z 1400/1424 09009KT P6SM SCT100 SCT250
     FM140500 14010G18KT P6SM SCT020 BKN060
      TEMPO 1410/1414 5SM -FZDZPL BKN020
     FM141400 15008KT P6SM SCT012 OVC020
      TEMPO 1414/1418 -FZRA BKN012
     FM141800 16008KT P6SM BKN015=

USA.gov is the U.S. government's official web portal to all federal, state and local government web resources and services.